Time;durP1;ratioP1;P1;durP2;ratioP2;P2;SDS_P1;SDS_P2;PMS_P1;PMS_P2;Temp;Humidity;BMP_temperature;BMP_pressure;BME280_temperature;BME280_humidity;BME280_pressure;Samples;Min_cycle;Max_cycle;Signal;HPM_P1;HPM_P2
2022/10/15 00:00:18;;;;;;;15.45;7.88;;;;;;;11.67;100.00;97132.16;5047549;28;20136;-66
2022/10/15 00:02:45;;;;;;;11.20;7.45;;;;;;;12.26;100.00;97241.63;5046383;28;20148;-66
2022/10/15 00:05:11;;;;;;;13.90;6.82;;;;;;;12.32;100.00;97240.91;5046117;28;20124;-67
2022/10/15 00:07:40;;;;;;;13.50;6.07;;;;;;;12.06;100.00;97193.75;5047257;28;20453;-67
2022/10/15 00:10:07;;;;;;;13.77;6.00;;;;;;;12.28;100.00;97228.97;5047490;28;20135;-66
2022/10/15 00:12:33;;;;;;;11.70;6.20;;;;;;;12.20;100.00;97235.59;5047356;28;20144;-66
2022/10/15 00:15:01;;;;;;;13.05;6.80;;;;;;;12.11;100.00;97235.06;5047141;28;20053;-66
2022/10/15 00:17:27;;;;;;;11.48;6.53;;;;;;;11.90;100.00;97207.78;5047382;28;20115;-68
2022/10/15 00:19:54;;;;;;;12.45;6.43;;;;;;;12.20;100.00;97249.50;5047501;28;20136;-66
2022/10/15 00:22:20;;;;;;;12.02;6.80;;;;;;;12.09;100.00;97238.22;5047453;28;20130;-66
2022/10/15 00:24:47;;;;;;;13.93;6.90;;;;;;;12.18;100.00;97237.94;5047002;28;20052;-66
2022/10/15 00:27:14;;;;;;;12.73;7.40;;;;;;;12.13;100.00;97238.28;5047106;28;20141;-66
2022/10/15 00:29:41;;;;;;;10.82;7.25;;;;;;;12.00;100.00;97212.72;5045739;28;20519;-68
2022/10/15 00:32:08;;;;;;;17.08;7.95;;;;;;;11.69;100.00;97165.88;5046876;28;20053;-67
2022/10/15 00:34:34;;;;;;;14.55;7.45;;;;;;;11.48;100.00;97112.00;5045584;28;20061;-66
2022/10/15 00:37:01;;;;;;;13.38;7.32;;;;;;;12.22;100.00;97224.13;5046401;28;20084;-68
2022/10/15 00:39:27;;;;;;;14.40;7.00;;;;;;;12.23;100.00;97221.75;5046522;28;20103;-68
2022/10/15 00:41:54;;;;;;;14.15;7.93;;;;;;;12.24;100.00;97222.56;5046559;28;20128;-67
2022/10/15 00:44:21;;;;;;;11.55;6.63;;;;;;;12.37;100.00;97215.59;5045409;28;20338;-68
2022/10/15 00:46:51;;;;;;;15.27;5.93;;;;;;;12.37;100.00;97223.09;5051775;28;20048;-69
2022/10/15 00:49:23;;;;;;;12.18;6.57;;;;;;;12.41;100.00;97221.97;5067220;28;20143;-69
2022/10/15 00:52:04;;;;;;;11.55;6.13;;;;;;;12.04;100.00;97154.47;5066724;28;20052;-68
2022/10/15 00:54:36;;;;;;;13.02;6.00;;;;;;;12.45;100.00;97211.72;5066458;28;20088;-69
2022/10/15 00:57:04;;;;;;;11.15;5.65;;;;;;;12.30;100.00;97203.59;5066438;28;20586;-69
2022/10/15 00:59:35;;;;;;;12.38;6.45;;;;;;;12.47;100.00;97208.56;5066435;28;20064;-68
2022/10/15 01:02:02;;;;;;;11.00;6.40;;;;;;;12.41;100.00;97205.31;5065326;28;20138;-68
2022/10/15 01:04:30;;;;;;;12.85;6.35;;;;;;;12.41;100.00;97216.41;5066440;28;20143;-67
2022/10/15 01:06:56;;;;;;;14.70;6.00;;;;;;;12.44;100.00;97210.09;5066208;28;20060;-68
2022/10/15 01:09:23;;;;;;;11.90;7.10;;;;;;;12.16;100.00;97168.91;5064657;28;20088;-67
2022/10/15 01:11:53;;;;;;;12.13;7.30;;;;;;;12.51;100.00;97204.66;5064804;28;20080;-67
2022/10/15 01:14:43;;;;;;;12.25;6.28;;;;;;;12.38;100.00;97217.19;5065048;28;20131;-68
2022/10/15 01:17:48;;;;;;;9.13;5.70;;;;;;;10.91;100.00;97027.19;5064777;28;20088;-67
2022/10/15 01:20:33;;;;;;;13.35;6.43;;;;;;;12.35;100.00;97206.81;5058542;28;20503;-67
2022/10/15 01:23:19;;;;;;;10.20;5.55;;;;;;;12.26;100.00;97225.75;5066047;28;20052;-67
2022/10/15 01:26:21;;;;;;;11.40;5.68;;;;;;;12.22;100.00;97213.78;5064396;28;20500;-68
2022/10/15 01:29:00;;;;;;;10.48;5.40;;;;;;;12.14;100.00;97198.19;5064390;28;20057;-67
2022/10/15 01:31:56;;;;;;;11.15;5.53;;;;;;;12.33;100.00;97214.72;5065589;28;20539;-67
2022/10/15 01:34:31;;;;;;;8.85;4.57;;;;;;;12.25;100.00;97213.03;5064333;28;20139;-67
2022/10/15 01:37:17;;;;;;;10.77;5.57;;;;;;;12.28;100.00;97215.09;5064271;28;20468;-67
2022/10/15 01:39:51;;;;;;;9.50;5.05;;;;;;;12.02;100.00;97187.34;5065615;28;20132;-67
2022/10/15 01:42:25;;;;;;;13.77;5.93;;;;;;;12.19;100.00;97214.53;5064206;28;20960;-67
2022/10/15 01:44:58;;;;;;;10.77;5.95;;;;;;;12.12;100.00;97215.25;5064679;28;20084;-67
2022/10/15 01:47:45;;;;;;;9.60;5.97;;;;;;;12.07;100.00;97212.00;5054591;28;20085;-67
2022/10/15 01:50:14;;;;;;;9.68;5.43;;;;;;;12.05;100.00;97215.16;5043975;28;20080;-67
2022/10/15 01:52:43;;;;;;;9.23;5.80;;;;;;;12.14;100.00;97212.09;5043174;28;20500;-69
2022/10/15 01:55:14;;;;;;;8.57;5.63;;;;;;;11.06;100.00;97050.38;5045358;28;20139;-68
2022/10/15 01:57:43;;;;;;;11.30;5.78;;;;;;;12.15;100.00;97206.16;5045296;28;20110;-67
2022/10/15 02:00:11;;;;;;;19.67;5.63;;;;;;;11.91;100.00;97198.31;5045316;28;20126;-67
2022/10/15 02:02:38;;;;;;;9.98;5.70;;;;;;;11.82;100.00;97166.44;5045171;28;20044;-68
2022/10/15 02:05:09;;;;;;;13.82;6.30;;;;;;;12.01;100.00;97202.41;5044635;28;20139;-69
2022/10/15 02:07:59;;;;;;;13.55;6.10;;;;;;;11.78;100.00;97171.13;5045403;28;20500;-67
2022/10/15 02:10:57;;;;;;;9.43;6.18;;;;;;;11.95;100.00;97215.00;5045186;28;20132;-67
2022/10/15 02:13:47;;;;;;;11.70;6.07;;;;;;;11.96;100.00;97211.06;5041931;28;20057;-67
2022/10/15 02:16:48;;;;;;;14.43;6.68;;;;;;;11.49;100.00;97219.03;5044992;28;20099;-67
2022/10/15 02:19:34;;;;;;;11.70;6.90;;;;;;;11.49;100.00;97219.03;5045296;28;20483;-68
2022/10/15 02:22:12;;;;;;;11.20;6.30;;;;;;;11.57;100.00;97210.44;5044880;28;20056;-68
2022/10/15 02:24:50;;;;;;;11.70;5.88;;;;;;;11.70;100.00;97219.38;5044843;28;20131;-69
2022/10/15 02:27:23;;;;;;;15.02;6.18;;;;;;;11.57;100.00;97231.84;5043496;28;20124;-70
2022/10/15 02:29:51;;;;;;;9.95;5.80;;;;;;;11.16;100.00;97166.97;5044906;28;20135;-68
2022/10/15 02:32:20;;;;;;;9.38;5.22;;;;;;;11.47;100.00;97222.19;5029650;28;20049;-70
2022/10/15 02:34:50;;;;;;;11.50;5.93;;;;;;;11.51;100.00;97225.81;5043387;28;20124;-69
2022/10/15 02:37:21;;;;;;;12.18;6.25;;;;;;;9.57;100.00;96929.94;5043138;28;20056;-70
2022/10/15 02:39:48;;;;;;;8.57;6.05;;;;;;;11.49;100.00;97219.03;5044389;28;20084;-70
2022/10/15 02:42:16;;;;;;;10.52;6.03;;;;;;;11.55;100.00;97228.63;5042957;28;20116;-69
2022/10/15 02:44:43;;;;;;;12.77;5.95;;;;;;;11.53;100.00;97219.88;5043335;28;20148;-69
2022/10/15 02:47:10;;;;;;;9.30;5.82;;;;;;;11.53;100.00;97220.69;5051528;28;20106;-69
2022/10/15 02:49:37;;;;;;;10.77;6.10;;;;;;;11.56;100.00;97219.13;5063076;28;20079;-70
2022/10/15 02:52:03;;;;;;;12.98;5.72;;;;;;;10.91;100.00;97142.81;5064295;28;20129;-70
2022/10/15 02:54:30;;;;;;;13.30;5.60;;;;;;;11.17;100.00;97184.41;5064518;28;20056;-70
2022/10/15 02:56:57;;;;;;;10.70;5.13;;;;;;;11.19;100.00;97193.19;5062933;28;20143;-68
2022/10/15 02:59:23;;;;;;;10.15;5.50;;;;;;;10.83;100.00;97127.22;5062810;28;20083;-70
2022/10/15 03:01:50;;;;;;;8.98;5.68;;;;;;;11.43;100.00;97226.06;5064279;28;20654;-70
2022/10/15 03:04:17;;;;;;;11.75;6.60;;;;;;;10.34;100.00;97064.22;5063400;28;20088;-70
2022/10/15 03:06:43;;;;;;;9.70;6.45;;;;;;;11.04;100.00;97163.59;5064188;28;20139;-69
2022/10/15 03:09:10;;;;;;;10.45;5.75;;;;;;;11.29;100.00;97207.22;5064282;28;20040;-70
2022/10/15 03:11:37;;;;;;;13.50;6.72;;;;;;;11.48;100.00;97217.41;5062575;28;20559;-70
2022/10/15 03:14:04;;;;;;;14.18;7.22;;;;;;;11.48;100.00;97212.69;5062714;28;20086;-70
2022/10/15 03:16:31;;;;;;;14.13;8.02;;;;;;;11.48;100.00;97220.19;5064178;28;20297;-71
2022/10/15 03:18:57;;;;;;;10.65;6.25;;;;;;;11.53;100.00;97230.97;5062977;28;20135;-69
2022/10/15 03:21:24;;;;;;;17.00;7.00;;;;;;;11.53;100.00;97219.88;5064071;28;20069;-70
2022/10/15 03:23:51;;;;;;;13.02;6.95;;;;;;;11.58;100.00;97222.34;5063965;28;20137;-70
2022/10/15 03:26:17;;;;;;;9.05;5.43;;;;;;;11.56;100.00;97230.22;5060101;28;20144;-70
2022/10/15 03:28:44;;;;;;;11.98;5.85;;;;;;;11.51;100.00;97222.22;5064153;28;20137;-71
2022/10/15 03:31:12;;;;;;;7.50;5.53;;;;;;;11.53;100.00;97220.69;5063601;28;20070;-71
2022/10/15 03:33:39;;;;;;;12.95;6.10;;;;;;;11.20;100.00;97161.50;5064001;28;20128;-70
2022/10/15 03:36:06;;;;;;;40.17;18.15;;;;;;;11.14;100.00;97157.44;5062300;28;20048;-70
2022/10/15 03:38:33;;;;;;;47.60;29.02;;;;;;;11.36;100.00;97226.75;5062408;28;20091;-70
2022/10/15 03:41:00;;;;;;;18.73;9.75;;;;;;;11.42;100.00;97233.59;5063966;28;20474;-70
2022/10/15 03:43:26;;;;;;;10.38;6.18;;;;;;;11.25;100.00;97222.19;5063642;28;20135;-70
2022/10/15 03:45:53;;;;;;;14.45;8.20;;;;;;;11.23;100.00;97222.56;5063795;28;20083;-70
2022/10/15 03:48:20;;;;;;;11.65;6.57;;;;;;;11.41;100.00;97234.75;5045699;28;20065;-70
2022/10/15 03:50:47;;;;;;;9.88;5.45;;;;;;;11.41;100.00;97245.84;5043314;28;20092;-70
2022/10/15 03:53:13;;;;;;;8.60;5.60;;;;;;;10.83;100.00;97163.25;5044058;28;20049;-70
2022/10/15 03:55:40;;;;;;;9.40;5.80;;;;;;;11.40;100.00;97249.78;5043763;28;20085;-69
2022/10/15 03:58:06;;;;;;;12.50;6.03;;;;;;;11.40;100.00;97246.19;5042268;28;20084;-69
2022/10/15 04:00:33;;;;;;;10.95;6.13;;;;;;;11.19;100.00;97221.69;5042025;28;20049;-68
2022/10/15 04:03:00;;;;;;;8.68;5.93;;;;;;;11.02;100.00;97199.22;5042175;28;20077;-69
2022/10/15 04:05:27;;;;;;;12.27;6.45;;;;;;;11.29;100.00;97248.00;5043015;28;20425;-68
2022/10/15 04:07:53;;;;;;;9.40;5.82;;;;;;;11.38;100.00;97254.13;5043682;28;20504;-68
2022/10/15 04:10:20;;;;;;;10.90;5.68;;;;;;;11.33;100.00;97248.88;5043482;28;20114;-67
2022/10/15 04:12:47;;;;;;;11.93;6.90;;;;;;;11.08;100.00;97208.81;5043420;28;20160;-67
2022/10/15 04:15:13;;;;;;;10.85;6.22;;;;;;;11.43;100.00;97254.59;5045372;28;20053;-67
2022/10/15 04:17:40;;;;;;;11.57;6.55;;;;;;;11.13;100.00;97216.84;5046770;28;20558;-67
2022/10/15 04:20:07;;;;;;;11.27;6.70;;;;;;;10.87;100.00;97191.81;5047001;28;20610;-68
2022/10/15 04:22:35;;;;;;;38.47;26.85;;;;;;;11.01;100.00;97214.22;5047191;28;20088;-69
2022/10/15 04:25:03;;;;;;;14.07;8.75;;;;;;;11.28;100.00;97240.84;5046940;28;20088;-67
2022/10/15 04:27:29;;;;;;;12.77;6.72;;;;;;;11.12;100.00;97220.75;5046959;28;20146;-69
2022/10/15 04:29:56;;;;;;;13.07;7.78;;;;;;;11.23;100.00;97238.38;5045524;28;20577;-67
2022/10/15 04:32:23;;;;;;;16.27;9.73;;;;;;;11.21;100.00;97240.72;5046936;28;20076;-68
2022/10/15 04:34:50;;;;;;;16.48;8.50;;;;;;;10.70;100.00;97166.19;5046433;28;20444;-68
2022/10/15 04:37:16;;;;;;;15.73;7.97;;;;;;;11.06;100.00;97211.16;5045353;28;20311;-69
2022/10/15 04:39:43;;;;;;;18.25;11.23;;;;;;;11.27;100.00;97245.59;5045585;28;20072;-68
2022/10/15 04:42:09;;;;;;;22.60;14.77;;;;;;;11.32;100.00;97247.25;5045947;28;20144;-68
2022/10/15 04:44:36;;;;;;;18.10;12.55;;;;;;;10.97;100.00;97191.97;5045452;28;20606;-68
2022/10/15 04:47:03;;;;;;;16.88;12.25;;;;;;;10.42;100.00;97115.00;5052452;28;20072;-68
2022/10/15 04:49:29;;;;;;;18.90;10.82;;;;;;;9.61;100.00;96990.88;5066590;28;20101;-68
2022/10/15 04:51:56;;;;;;;14.95;9.43;;;;;;;11.20;100.00;97244.69;5065177;28;20052;-69
2022/10/15 04:54:23;;;;;;;15.85;8.73;;;;;;;10.94;100.00;97197.50;5065223;28;20379;-69
2022/10/15 04:56:49;;;;;;;17.17;8.90;;;;;;;11.33;100.00;97251.66;5064607;28;20051;-67
2022/10/15 04:59:16;;;;;;;15.98;9.30;;;;;;;10.86;100.00;97188.22;5066823;28;20048;-70
2022/10/15 05:01:43;;;;;;;13.38;7.18;;;;;;;11.36;100.00;97259.22;5066850;28;20153;-67
2022/10/15 05:04:11;;;;;;;17.52;10.25;;;;;;;11.42;100.00;97252.19;5066768;28;20044;-67
2022/10/15 05:06:37;;;;;;;26.75;12.07;;;;;;;11.29;100.00;97234.13;5065392;28;20076;-69
2022/10/15 05:09:04;;;;;;;16.98;9.75;;;;;;;11.41;100.00;97261.69;5066858;28;20044;-69
2022/10/15 05:11:34;;;;;;;14.45;9.68;;;;;;;11.15;100.00;97225.56;5066639;28;20044;-68
2022/10/15 05:14:01;;;;;;;15.73;8.95;;;;;;;11.58;100.00;97250.09;5064954;28;20092;-68
2022/10/15 05:16:29;;;;;;;14.18;9.68;;;;;;;11.31;100.00;97201.28;5066111;28;20064;-69
2022/10/15 05:19:04;;;;;;;18.52;9.20;;;;;;;11.64;100.00;97254.16;5066206;28;20143;-69
2022/10/15 05:21:32;;;;;;;13.25;7.65;;;;;;;11.60;100.00;97254.06;5066148;28;20113;-69
2022/10/15 05:24:00;;;;;;;12.15;8.25;;;;;;;11.50;100.00;97259.47;5066261;28;20099;-69
2022/10/15 05:26:28;;;;;;;12.95;8.40;;;;;;;11.55;100.00;97267.47;5064064;28;20516;-69
2022/10/15 05:28:56;;;;;;;14.80;8.25;;;;;;;11.04;100.00;97158.88;5064531;28;20087;-68
2022/10/15 05:31:26;;;;;;;12.13;7.32;;;;;;;11.81;100.00;97259.19;5064392;28;20044;-68
2022/10/15 05:33:53;;;;;;;13.32;7.18;;;;;;;11.47;100.00;97221.38;5064681;28;20091;-68
2022/10/15 05:36:21;;;;;;;13.95;8.05;;;;;;;11.69;100.00;97245.53;5065760;28;20136;-68
2022/10/15 05:39:00;;;;;;;14.70;7.07;;;;;;;11.85;100.00;97254.53;5064321;28;20123;-69
2022/10/15 05:41:28;;;;;;;17.38;8.90;;;;;;;12.04;100.00;97268.28;5064007;28;20091;-69
2022/10/15 05:43:56;;;;;;;21.95;12.15;;;;;;;11.95;100.00;97239.97;5066435;28;20537;-70
2022/10/15 05:46:23;;;;;;;20.90;10.70;;;;;;;11.83;100.00;97184.69;5049119;28;20099;-68
2022/10/15 05:48:55;;;;;;;13.43;7.47;;;;;;;12.55;100.00;97265.81;5033438;28;20064;-68
2022/10/15 05:51:24;;;;;;;20.15;9.90;;;;;;;12.68;100.00;97259.63;5025584;28;20140;-69
2022/10/15 05:53:52;;;;;;;19.05;10.45;;;;;;;12.93;100.00;97263.50;5025606;28;20127;-68
2022/10/15 05:56:18;;;;;;;13.10;7.13;;;;;;;12.77;100.00;97217.66;5023948;28;20146;-68
2022/10/15 05:58:45;;;;;;;10.48;6.18;;;;;;;12.80;97.46;97203.81;5025413;28;20514;-70
2022/10/15 06:01:12;;;;;;;22.58;8.20;;;;;;;13.37;96.54;97264.38;5025252;28;20077;-68
2022/10/15 06:03:40;;;;;;;15.85;8.93;;;;;;;13.21;93.66;97222.13;5024124;28;20135;-70
2022/10/15 06:06:15;;;;;;;13.70;7.70;;;;;;;13.77;92.95;97271.13;5025422;28;20053;-70
2022/10/15 06:08:42;;;;;;;12.52;6.97;;;;;;;13.53;91.34;97212.06;5025493;28;20041;-69
2022/10/15 06:11:09;;;;;;;14.43;7.50;;;;;;;14.01;91.59;97257.38;5025457;28;20115;-69
2022/10/15 06:13:40;;;;;;;15.63;7.53;;;;;;;14.40;89.73;97277.16;5023867;28;20119;-69
2022/10/15 06:16:08;;;;;;;9.98;6.95;;;;;;;14.13;86.31;97189.41;5023675;28;20085;-69
2022/10/15 06:18:35;;;;;;;12.40;5.60;;;;;;;14.64;84.44;97243.84;5025043;28;20863;-69
2022/10/15 06:21:02;;;;;;;9.23;5.53;;;;;;;15.15;84.52;97275.09;5025215;28;20187;-69
2022/10/15 06:23:29;;;;;;;7.35;4.68;;;;;;;14.49;79.21;97164.13;5025002;28;20053;-68
2022/10/15 06:25:56;;;;;;;14.13;5.80;;;;;;;15.22;78.64;97285.50;5023556;28;20045;-69
2022/10/15 06:28:22;;;;;;;6.50;4.80;;;;;;;15.22;76.56;97291.06;5023809;28;20045;-68
2022/10/15 06:30:49;;;;;;;7.65;4.28;;;;;;;14.69;72.05;97228.72;5024795;28;20045;-70
2022/10/15 06:33:16;;;;;;;6.35;3.90;;;;;;;13.96;72.85;97084.28;5025084;28;20069;-69
2022/10/15 06:35:43;;;;;;;7.78;3.75;;;;;;;15.06;71.55;97232.03;5024526;28;20061;-69
2022/10/15 06:38:11;;;;;;;6.53;3.50;;;;;;;14.57;68.73;97159.38;5023758;28;20089;-66
2022/10/15 06:40:38;;;;;;;5.80;3.45;;;;;;;15.66;70.58;97302.75;5032900;28;20105;-62
2022/10/15 06:43:07;;;;;;;6.47;3.85;;;;;;;15.90;68.78;97307.56;5042698;28;20106;-61
2022/10/15 06:45:36;;;;;;;10.90;3.97;;;;;;;15.88;68.38;97273.66;5044766;28;20537;-63
2022/10/15 06:48:04;;;;;;;8.85;3.97;;;;;;;15.98;66.98;97334.31;5045238;28;20084;-64
2022/10/15 06:50:32;;;;;;;6.35;3.65;;;;;;;15.93;67.30;97267.63;5040867;28;20080;-68
2022/10/15 06:52:58;;;;;;;4.85;3.05;;;;;;;15.31;66.12;97237.66;5041492;28;20538;-62
2022/10/15 06:55:30;;;;;;;9.60;4.43;;;;;;;14.95;70.33;97158.69;5034342;28;20528;-74
2022/10/15 06:57:58;;;;;;;7.80;3.50;;;;;;;16.04;68.86;97288.03;5024572;28;20092;-64
2022/10/15 07:00:25;;;;;;;4.93;3.10;;;;;;;15.86;64.47;97309.56;5023739;28;20579;-62
2022/10/15 07:02:53;;;;;;;6.35;3.05;;;;;;;15.44;65.23;97309.50;5024515;28;20068;-62
2022/10/15 07:05:20;;;;;;;3.88;2.15;;;;;;;15.37;65.46;97309.44;5025836;28;20581;-64
2022/10/15 07:07:54;;;;;;;4.20;2.60;;;;;;;15.04;64.72;97309.75;5031675;28;20053;-63
2022/10/15 07:10:22;;;;;;;5.28;2.50;;;;;;;14.78;65.65;97312.81;5023528;28;20491;-62
2022/10/15 07:12:49;;;;;;;4.55;2.47;;;;;;;14.69;66.66;97323.50;5024103;28;20515;-62
2022/10/15 07:15:16;;;;;;;4.57;2.38;;;;;;;14.76;67.70;97306.84;5022927;28;20142;-63
2022/10/15 07:17:50;;;;;;;3.70;2.60;;;;;;;14.98;70.17;97325.25;5024425;28;20467;-64
2022/10/15 07:20:18;;;;;;;7.32;3.40;;;;;;;14.74;67.74;97315.59;5024073;28;20087;-61
2022/10/15 07:22:54;;;;;;;2.58;1.83;;;;;;;14.70;64.51;97322.34;5024403;28;20370;-62
2022/10/15 07:25:21;;;;;;;4.57;2.25;;;;;;;14.52;66.15;97307.50;5024249;28;20053;-61
2022/10/15 07:27:47;;;;;;;4.57;2.10;;;;;;;14.23;65.78;97305.66;5023904;28;20072;-61
2022/10/15 07:30:14;;;;;;;4.95;2.60;;;;;;;14.50;66.58;97321.00;5023786;28;20057;-62
2022/10/15 07:32:41;;;;;;;8.40;3.53;;;;;;;14.04;68.39;97314.28;5039590;28;20045;-61
2022/10/15 07:35:12;;;;;;;4.53;1.90;;;;;;;13.65;68.07;97275.81;5056952;28;20052;-62
2022/10/15 07:37:39;;;;;;;4.93;2.72;;;;;;;14.25;68.81;97326.44;5038096;28;20131;-70
2022/10/15 07:40:06;;;;;;;4.68;2.22;;;;;;;13.40;68.23;97263.63;5042945;28;20519;-66
2022/10/15 07:42:33;;;;;;;7.13;2.83;;;;;;;13.98;68.42;97327.78;5031602;28;20596;-67
2022/10/15 07:45:00;;;;;;;5.10;2.45;;;;;;;11.89;68.21;96994.44;5042024;28;20636;-72
2022/10/15 07:47:27;;;;;;;4.88;2.25;;;;;;;14.06;68.26;97328.63;5044038;28;20451;-66
2022/10/15 07:49:54;;;;;;;8.18;3.15;;;;;;;14.06;69.04;97340.59;5037267;28;20124;-64
2022/10/15 07:52:20;;;;;;;4.03;1.85;;;;;;;13.53;67.38;97256.59;5027462;28;20145;-72
2022/10/15 07:54:47;;;;;;;5.65;2.50;;;;;;;13.76;67.80;97287.03;5027961;28;20145;-66
2022/10/15 07:57:14;;;;;;;3.08;2.13;;;;;;;13.17;67.89;97221.28;5027093;28;20141;-68
2022/10/15 07:59:40;;;;;;;5.22;2.97;;;;;;;13.99;68.64;97323.03;5034497;28;20076;-64
2022/10/15 08:02:15;;;;;;;6.05;2.80;;;;;;;13.87;68.31;97278.75;5033230;28;20137;-69
2022/10/15 08:04:42;;;;;;;9.88;4.30;;;;;;;14.39;68.24;97331.28;5047670;28;20114;-72
2022/10/15 08:07:09;;;;;;;4.90;2.45;;;;;;;14.67;66.22;97332.28;5045204;28;20114;-69
2022/10/15 08:09:36;;;;;;;17.40;6.32;;;;;;;14.99;65.42;97326.84;5027336;28;20041;-72
2022/10/15 08:12:05;;;;;;;6.22;2.55;;;;;;;14.85;63.36;97237.53;5027287;28;20086;-65
2022/10/15 08:14:35;;;;;;;4.90;2.45;;;;;;;15.75;60.94;97324.69;5027721;28;20111;-69
2022/10/15 08:17:03;;;;;;;4.53;2.33;;;;;;;15.73;59.86;97260.84;5035338;28;20123;-67
2022/10/15 08:19:30;;;;;;;3.67;2.83;;;;;;;16.48;59.37;97318.34;5031027;28;20160;-67
2022/10/15 08:21:57;;;;;;;9.68;6.38;;;;;;;16.18;57.92;97321.53;5027307;28;20085;-64
2022/10/15 08:24:24;;;;;;;7.32;3.15;;;;;;;16.28;60.37;97326.31;5027612;28;20274;-65
2022/10/15 08:26:50;;;;;;;6.03;2.53;;;;;;;16.40;60.40;97328.72;5027099;28;20096;-69
2022/10/15 08:29:17;;;;;;;4.30;2.47;;;;;;;15.64;61.79;97263.25;5036264;28;20500;-65
2022/10/15 08:31:44;;;;;;;3.35;2.80;;;;;;;15.78;62.53;97280.03;5028992;28;20096;-62
2022/10/15 08:34:10;;;;;;;6.65;3.80;;;;;;;16.16;62.08;97337.91;5026728;28;20165;-66
2022/10/15 08:36:37;;;;;;;8.73;3.22;;;;;;;16.49;61.60;97337.50;5026874;28;20080;-63
2022/10/15 08:39:06;;;;;;;4.20;3.22;;;;;;;16.05;61.60;97266.44;5025484;28;20071;-63
2022/10/15 08:41:39;;;;;;;7.35;3.30;;;;;;;16.58;61.21;97332.28;5025905;28;20049;-65
2022/10/15 08:44:10;;;;;;;3.85;2.90;;;;;;;16.01;61.62;97319.53;5026589;28;20115;-62
2022/10/15 08:46:42;;;;;;;5.35;3.30;;;;;;;16.36;61.43;97333.50;5025815;28;20049;-62
2022/10/15 08:49:47;;;;;;;5.20;2.60;;;;;;;16.29;60.49;97260.84;5026978;28;20471;-60
2022/10/15 08:52:34;;;;;;;4.78;2.78;;;;;;;16.43;59.55;97316.72;5019273;28;20136;-61
2022/10/15 08:55:01;;;;;;;3.92;2.90;;;;;;;16.83;58.93;97295.88;5026083;28;20081;-65
2022/10/15 08:57:42;;;;;;;5.70;3.33;;;;;;;16.39;61.70;97338.28;5026373;28;20081;-64
2022/10/15 09:00:23;;;;;;;5.75;3.25;;;;;;;16.69;61.88;97345.47;5026175;28;20140;-62
2022/10/15 09:02:58;;;;;;;4.60;3.78;;;;;;;16.88;61.01;97342.22;5026019;28;20496;-72
2022/10/15 09:05:31;;;;;;;5.47;3.78;;;;;;;17.01;60.10;97346.97;5023092;28;20489;-62
2022/10/15 09:08:09;;;;;;;4.45;3.00;;;;;;;15.19;60.29;97091.72;5025659;28;20111;-63
2022/10/15 09:10:48;;;;;;;4.03;2.97;;;;;;;16.35;61.59;97315.13;5032009;28;20126;-60
2022/10/15 09:13:32;;;;;;;5.53;3.08;;;;;;;15.70;62.04;97284.00;5023933;28;20077;-62
2022/10/15 09:16:19;;;;;;;4.15;3.58;;;;;;;16.54;62.18;97351.09;5025983;28;20069;-64
2022/10/15 09:18:48;;;;;;;7.07;4.35;;;;;;;16.78;62.14;97348.66;5025505;28;20131;-61
2022/10/15 09:21:15;;;;;;;2.60;2.25;;;;;;;16.59;60.61;97359.09;5023884;28;20146;-61
2022/10/15 09:23:43;;;;;;;6.72;4.57;;;;;;;15.95;62.39;97273.63;5025900;28;20041;-64
2022/10/15 09:26:48;;;;;;;10.43;4.03;;;;;;;15.84;62.65;97255.28;5025506;28;20049;-63
2022/10/15 09:29:28;;;;;;;4.88;3.90;;;;;;;16.17;62.50;97291.19;5024191;28;20137;-64
2022/10/15 09:32:01;;;;;;;6.18;3.47;;;;;;;16.63;63.24;97358.28;5028777;28;20069;-60
2022/10/15 09:35:11;;;;;;;3.65;3.30;;;;;;;15.80;62.73;97310.34;5041024;28;20139;-63
2022/10/15 09:37:45;;;;;;;4.93;2.85;;;;;;;16.44;62.76;97357.50;5029967;28;20096;-67
2022/10/15 09:40:37;;;;;;;5.00;4.00;;;;;;;16.32;63.48;97357.88;5025183;28;20049;-74
2022/10/15 09:43:05;;;;;;;9.93;5.97;;;;;;;13.99;63.58;96952.59;5035200;28;20064;-60
2022/10/15 09:45:32;;;;;;;4.20;2.83;;;;;;;16.43;62.82;97355.88;5027437;28;20092;-60
2022/10/15 09:48:00;;;;;;;5.85;3.38;;;;;;;16.19;63.45;97345.50;5025176;28;20428;-60
2022/10/15 09:50:40;;;;;;;5.28;3.00;;;;;;;16.26;62.83;97328.72;5024574;28;20096;-67
2022/10/15 09:53:32;;;;;;;3.63;2.80;;;;;;;16.55;61.98;97363.88;5022644;28;20107;-60
2022/10/15 09:56:20;;;;;;;6.20;3.33;;;;;;;16.27;64.01;97319.13;5025176;28;20145;-59
2022/10/15 09:58:58;;;;;;;3.47;2.95;;;;;;;16.61;63.01;97356.66;5025021;28;20095;-58
2022/10/15 10:01:26;;;;;;;3.78;2.33;;;;;;;16.88;61.48;97354.22;5024937;28;20137;-59
2022/10/15 10:04:09;;;;;;;12.48;3.92;;;;;;;16.72;63.09;97355.84;5023997;28;20128;-60
2022/10/15 10:07:06;;;;;;;4.10;3.60;;;;;;;15.44;62.51;97153.16;5028682;28;20538;-59
2022/10/15 10:09:52;;;;;;;3.85;2.30;;;;;;;16.43;62.67;97316.72;5042150;28;20073;-62
2022/10/15 10:12:37;;;;;;;8.38;3.50;;;;;;;16.99;61.61;97348.59;5033877;28;20080;-65
2022/10/15 10:15:24;;;;;;;5.80;3.80;;;;;;;17.35;60.96;97347.25;5033770;28;20072;-63
2022/10/15 10:17:55;;;;;;;6.95;4.13;;;;;;;16.91;60.73;97277.06;5027233;28;20053;-67
2022/10/15 10:20:24;;;;;;;5.32;3.78;;;;;;;17.07;61.65;97350.94;5027766;28;20080;-59
2022/10/15 10:22:59;;;;;;;8.35;5.78;;;;;;;16.78;61.31;97334.66;5032808;28;20539;-59
2022/10/15 10:25:25;;;;;;;6.85;4.40;;;;;;;16.80;61.81;97363.84;5031586;28;20048;-57
2022/10/15 10:28:02;;;;;;;4.22;2.97;;;;;;;16.63;62.26;97359.88;5026240;28;20495;-57
2022/10/15 10:30:34;;;;;;;8.48;4.25;;;;;;;16.41;63.87;97352.66;5024435;28;20988;-57
2022/10/15 10:33:01;;;;;;;5.35;2.90;;;;;;;16.71;63.38;97348.69;5023626;28;20136;-57
2022/10/15 10:35:35;;;;;;;7.13;4.80;;;;;;;16.75;63.01;97321.47;5022762;28;20508;-57
2022/10/15 10:38:02;;;;;;;2.90;2.60;;;;;;;16.77;62.29;97341.47;5022808;28;20515;-58
2022/10/15 10:40:33;;;;;;;6.65;3.60;;;;;;;16.76;61.46;97307.09;5022555;28;20092;-60
2022/10/15 10:43:14;;;;;;;5.75;4.15;;;;;;;16.82;61.06;97282.28;5022122;28;20084;-60
2022/10/15 10:46:01;;;;;;;14.68;6.70;;;;;;;17.78;59.98;97326.22;5021115;28;20049;-57
2022/10/15 10:48:46;;;;;;;7.22;5.03;;;;;;;17.71;59.85;97326.25;5022547;28;20477;-56
2022/10/15 10:51:14;;;;;;;3.40;2.45;;;;;;;17.63;59.07;97321.91;5024801;28;20119;-56
2022/10/15 10:53:53;;;;;;;6.03;3.55;;;;;;;17.49;58.24;97310.78;5024895;28;20058;-57
2022/10/15 10:56:32;;;;;;;8.60;4.63;;;;;;;14.11;59.03;96751.66;5023180;28;20046;-56
2022/10/15 10:59:09;;;;;;;10.20;6.18;;;;;;;18.02;58.47;97322.44;5023016;28;20575;-59
2022/10/15 11:01:36;;;;;;;7.32;4.47;;;;;;;17.83;57.50;97320.19;5024736;28;20167;-57
2022/10/15 11:04:03;;;;;;;14.43;6.78;;;;;;;17.46;57.95;97273.22;5024539;28;20140;-57
2022/10/15 11:06:43;;;;;;;3.10;2.58;;;;;;;17.47;58.25;97318.78;5024469;28;20586;-57
2022/10/15 11:09:56;;;;;;;3.45;2.92;;;;;;;17.46;58.75;97362.03;5023074;28;20567;-57
2022/10/15 11:12:54;;;;;;;8.77;4.28;;;;;;;17.29;59.66;97318.09;5021925;28;20057;-58
2022/10/15 11:15:41;;;;;;;6.90;3.80;;;;;;;17.45;59.28;97315.63;5024219;28;20064;-58
2022/10/15 11:18:32;;;;;;;8.23;5.15;;;;;;;17.62;59.27;97320.31;5024503;28;20443;-58
2022/10/15 11:20:58;;;;;;;4.00;3.17;;;;;;;18.12;57.67;97315.94;5024424;28;20057;-57
2022/10/15 11:23:40;;;;;;;6.50;2.70;;;;;;;17.32;58.62;97317.25;5022882;28;20049;-57
2022/10/15 11:26:25;;;;;;;3.80;2.75;;;;;;;16.76;59.63;97315.47;5028117;28;20140;-55
2022/10/15 11:29:01;;;;;;;8.20;5.07;;;;;;;17.11;59.88;97317.34;5028528;28;20084;-57
2022/10/15 11:31:32;;;;;;;9.20;5.32;;;;;;;17.00;57.88;97218.63;5026836;28;20114;-58
2022/10/15 11:34:38;;;;;;;4.25;3.10;;;;;;;16.87;59.54;97323.81;5028728;28;20566;-58
2022/10/15 11:37:20;;;;;;;4.47;3.38;;;;;;;17.16;58.67;97314.13;5027764;28;20088;-57
2022/10/15 11:40:03;;;;;;;5.22;3.55;;;;;;;17.24;58.42;97321.28;5027244;28;20154;-57
2022/10/15 11:42:41;;;;;;;4.10;2.83;;;;;;;17.25;57.96;97306.09;5028007;28;20164;-57
2022/10/15 11:45:14;;;;;;;4.85;2.83;;;;;;;17.09;59.43;97316.94;5026600;28;20570;-56